Terminal Aerodrome Forecast
Issued by NWS

Home | Current Version | Previous Version | Text Only | Print | Product List | Glossary On
Versions: 1 2 3 4 5 6 7 8 9 10 11 12 13 14 15 16 17 18 19 20 21 22 23 24 25 26 27 28 29 30 31 32
000
FTUS45 KSLC 201120
TAFPVU
TAF
KPVU 201120Z 2012/2112 11006KT P6SM BKN080
     FM201700 28007KT P6SM -RA BKN040 OVC070
     FM202300 29010G16KT P6SM VCSH BKN070
     FM210100 30008KT P6SM SCT080 BKN120=

USA.gov is the U.S. government's official web portal to all federal, state and local government web resources and services.